Time;durP1;ratioP1;P1;durP2;ratioP2;P2;SDS_P1;SDS_P2;PMS_P1;PMS_P2;Temp;Humidity;BMP_temperature;BMP_pressure;BME280_temperature;BME280_humidity;BME280_pressure;Samples;Min_cycle;Max_cycle;Signal;HPM_P1;HPM_P2
2021/10/12 00:00:58;;;;;;;6.03;1.73;;;;;;;7.71;100.00;101303.94;5088189;28;20266;-84
2021/10/12 00:03:24;;;;;;;9.60;2.15;;;;;;;7.60;100.00;101293.34;5071026;28;20036;-84
2021/10/12 00:05:49;;;;;;;6.77;1.83;;;;;;;7.68;100.00;101288.25;5070994;28;20106;-84
2021/10/12 00:08:15;;;;;;;7.80;1.63;;;;;;;7.57;100.00;101275.84;5088253;28;20101;-82
2021/10/12 00:10:40;;;;;;;14.03;2.30;;;;;;;7.64;100.00;101284.16;5089395;28;20058;-82
2021/10/12 00:13:06;;;;;;;11.50;1.40;;;;;;;7.67;100.00;101296.34;5089943;28;20130;-83
2021/10/12 00:15:32;;;;;;;6.18;1.55;;;;;;;7.77;100.00;101295.44;5089160;28;20588;-83
2021/10/12 00:17:57;;;;;;;3.08;1.10;;;;;;;7.78;100.00;101290.97;5055665;28;20043;-81
2021/10/12 00:20:23;;;;;;;7.07;1.03;;;;;;;7.75;100.00;101286.75;5071964;28;20364;-81
2021/10/12 00:22:48;;;;;;;8.40;1.20;;;;;;;7.73;100.00;101253.31;5071913;28;20040;-80
2021/10/12 00:25:14;;;;;;;5.83;1.17;;;;;;;7.82;100.00;101255.16;5089653;28;20024;-82
2021/10/12 00:27:39;;;;;;;5.93;1.97;;;;;;;7.77;100.00;101254.69;5089898;28;20492;-82
2021/10/12 00:30:05;;;;;;;14.60;1.20;;;;;;;7.65;100.00;101251.28;5071984;28;20032;-81
2021/10/12 00:32:32;;;;;;;7.70;0.90;;;;;;;7.57;100.00;101256.41;5089544;28;20524;-81
2021/10/12 00:34:58;;;;;;;3.72;1.38;;;;;;;7.56;100.00;101244.97;5089048;28;20081;-80
2021/10/12 00:37:23;;;;;;;6.88;1.10;;;;;;;7.53;100.00;101244.38;5071859;28;20040;-82
2021/10/12 00:39:49;;;;;;;10.10;1.17;;;;;;;7.53;100.00;101250.50;5088762;28;20032;-81
2021/10/12 00:42:15;;;;;;;6.53;1.00;;;;;;;7.31;100.00;101224.09;5071429;28;20510;-82
2021/10/12 00:44:41;;;;;;;11.23;1.80;;;;;;;7.46;100.00;101241.38;5071485;28;20367;-81
2021/10/12 00:47:06;;;;;;;6.18;1.15;;;;;;;7.40;100.00;101240.09;5071689;28;20109;-81
2021/10/12 00:49:32;;;;;;;6.87;0.83;;;;;;;7.45;100.00;101250.34;5054779;28;20046;-82
2021/10/12 00:51:58;;;;;;;6.45;1.08;;;;;;;7.47;100.00;101244.88;5089212;28;20290;-81
2021/10/12 00:54:23;;;;;;;8.90;1.33;;;;;;;7.45;100.00;101244.19;5054132;28;20056;-82
2021/10/12 00:56:49;;;;;;;5.38;1.42;;;;;;;7.48;100.00;101250.06;5089115;28;20031;-82
2021/10/12 00:59:14;;;;;;;5.43;0.93;;;;;;;7.42;100.00;101234.63;5071495;28;20028;-80
2021/10/12 01:01:40;;;;;;;6.73;1.00;;;;;;;7.62;100.00;101251.56;5088289;28;20032;-82
2021/10/12 01:04:07;;;;;;;3.15;0.95;;;;;;;7.69;100.00;101252.72;5071335;28;20040;-82
2021/10/12 01:06:33;;;;;;;6.15;1.73;;;;;;;7.71;100.00;101239.31;5071423;28;20024;-81
2021/10/12 01:08:58;;;;;;;4.32;0.77;;;;;;;7.70;100.00;101226.97;5088017;28;20342;-82
2021/10/12 01:11:25;;;;;;;7.20;1.13;;;;;;;7.69;100.00;101206.69;5088022;28;20047;-81
2021/10/12 01:13:50;;;;;;;;;;;;;;;7.70;100.00;101195.06;5071366;28;20040;-83
2021/10/12 01:16:16;;;;;;;;;;;;;;;7.75;100.00;101190.19;5071921;28;19919;-81
2021/10/12 01:18:59;;;;;;;5.15;1.17;;;;;;;7.69;100.00;101201.38;5071452;28;19912;-83
2021/10/12 01:21:29;;;;;;;3.67;0.82;;;;;;;7.64;100.00;101203.59;5089262;28;20024;-83
2021/10/12 01:23:55;;;;;;;2.58;0.70;;;;;;;7.61;100.00;101199.41;5071568;28;20507;-84
2021/10/12 01:26:21;;;;;;;2.97;0.70;;;;;;;7.60;100.00;101201.19;5071969;28;20024;-84
2021/10/12 01:28:47;;;;;;;6.25;1.50;;;;;;;7.61;100.00;101207.38;5071708;28;20328;-83
2021/10/12 01:31:18;;;;;;;4.22;0.90;;;;;;;7.60;100.00;101206.50;5071722;28;20120;-83
2021/10/12 01:33:44;;;;;;;3.65;1.08;;;;;;;7.57;100.00;101193.47;5071080;28;20036;-83
2021/10/12 01:36:09;;;;;;;3.35;0.68;;;;;;;7.63;100.00;101201.91;5071652;28;20043;-81
2021/10/12 01:38:36;;;;;;;8.00;1.25;;;;;;;7.55;100.00;101179.47;5071661;28;20464;-83
2021/10/12 01:41:02;;;;;;;8.03;1.37;;;;;;;7.65;100.00;101199.94;5071604;28;20044;-86
2021/10/12 01:43:28;;;;;;;4.40;0.80;;;;;;;7.63;100.00;101193.91;5071262;28;20051;-84
2021/10/12 01:45:58;;;;;;;3.73;0.70;;;;;;;7.69;100.00;101190.75;5088331;28;20032;-82
2021/10/12 01:48:24;;;;;;;2.22;0.60;;;;;;;7.66;100.00;101177.72;5070665;28;20122;-82
2021/10/12 01:50:49;;;;;;;11.98;2.10;;;;;;;7.60;100.00;101174.59;5054084;28;20143;-82
2021/10/12 01:53:15;;;;;;;3.97;0.53;;;;;;;7.53;100.00;101162.81;5071346;28;20116;-81
2021/10/12 01:55:41;;;;;;;3.30;0.97;;;;;;;7.53;100.00;101154.03;5074728;28;20040;-81
2021/10/12 01:58:06;;;;;;;3.15;1.23;;;;;;;7.60;100.00;101137.41;5074595;28;20119;-80
2021/10/12 02:00:31;;;;;;;3.20;0.50;;;;;;;7.67;100.00;101140.38;5092459;28;20542;-80
2021/10/12 02:02:57;;;;;;;1.50;0.50;;;;;;;7.50;100.00;101144.50;5073891;28;20119;-80
2021/10/12 02:05:22;;;;;;;2.93;0.50;;;;;;;7.53;100.00;101136.25;5074224;28;20115;-79
2021/10/12 02:07:48;;;;;;;1.83;0.50;;;;;;;7.49;100.00;101149.94;5092181;28;20368;-79
2021/10/12 02:10:13;;;;;;;2.23;0.77;;;;;;;7.37;100.00;101128.81;5074458;28;20098;-80
2021/10/12 02:12:39;;;;;;;1.27;0.40;;;;;;;7.40;100.00;101151.59;5091918;28;20059;-81
2021/10/12 02:15:05;;;;;;;3.67;0.37;;;;;;;7.25;100.00;101152.91;5057312;28;20032;-80
2021/10/12 02:17:30;;;;;;;;;;;;;;;7.12;100.00;101151.28;5058026;28;20634;-81
2021/10/12 02:19:56;;;;;;;;;;;;;;;7.12;100.00;101156.59;5074594;28;19998;-80
2021/10/12 02:22:21;;;;;;;2.00;0.63;;;;;;;7.06;100.00;101151.81;5074232;28;19941;-81
2021/10/12 02:24:47;;;;;;;6.57;1.27;;;;;;;7.03;100.00;101146.75;5073907;28;20042;-81
2021/10/12 02:27:12;;;;;;;1.47;0.40;;;;;;;6.97;100.00;101140.13;5074062;28;20384;-80
2021/10/12 02:29:38;;;;;;;1.55;0.55;;;;;;;6.94;100.00;101137.75;5057382;28;20464;-80
2021/10/12 02:32:03;;;;;;;1.40;0.50;;;;;;;6.89;100.00;101139.97;5073973;28;20054;-81
2021/10/12 02:34:29;;;;;;;4.07;1.07;;;;;;;6.81;100.00;101138.91;5073747;28;20032;-81
2021/10/12 02:36:55;;;;;;;5.03;0.47;;;;;;;6.90;100.00;101138.13;5074196;28;20284;-81
2021/10/12 02:39:21;;;;;;;3.22;0.70;;;;;;;6.87;100.00;101133.09;5073990;28;20036;-80
2021/10/12 02:41:46;;;;;;;0.80;0.37;;;;;;;6.75;100.00;101119.03;5074313;28;20019;-82
2021/10/12 02:44:12;;;;;;;1.42;0.68;;;;;;;6.77;100.00;101130.38;5073950;28;20031;-81
2021/10/12 02:46:37;;;;;;;3.07;0.80;;;;;;;6.82;100.00;101136.13;5074404;28;20487;-82
2021/10/12 02:49:03;;;;;;;3.43;2.00;;;;;;;6.90;100.00;101120.38;5091704;28;20036;-82
2021/10/12 02:51:28;;;;;;;4.03;0.47;;;;;;;6.90;100.00;101127.53;5073934;28;20089;-82
2021/10/12 02:53:53;;;;;;;9.80;0.90;;;;;;;6.88;100.00;101117.06;5073250;28;20290;-82
2021/10/12 02:56:19;;;;;;;5.70;1.27;;;;;;;6.88;100.00;101118.84;5074056;28;20046;-84
2021/10/12 02:58:44;;;;;;;1.73;0.43;;;;;;;6.88;100.00;101110.88;5074032;28;20052;-81
2021/10/12 03:01:10;;;;;;;4.03;0.67;;;;;;;6.79;100.00;101109.88;5074014;28;20028;-83
2021/10/12 03:03:35;;;;;;;2.70;0.50;;;;;;;6.83;100.00;101115.75;5073901;28;20097;-82
2021/10/12 03:06:01;;;;;;;1.02;0.35;;;;;;;6.93;100.00;101127.25;5073495;28;20085;-82
2021/10/12 03:08:26;;;;;;;3.40;0.60;;;;;;;6.85;100.00;101116.47;5074070;28;20861;-82
2021/10/12 03:10:52;;;;;;;3.05;1.05;;;;;;;6.87;100.00;101123.31;5057017;28;20039;-82
2021/10/12 03:13:17;;;;;;;8.93;0.90;;;;;;;6.88;100.00;101125.00;5073541;28;20040;-82
2021/10/12 03:15:43;;;;;;;5.77;1.30;;;;;;;6.81;100.00;101110.56;5057035;28;20285;-82
2021/10/12 03:18:09;;;;;;;0.88;0.52;;;;;;;6.83;100.00;101127.19;5073972;28;20051;-85
2021/10/12 03:20:34;;;;;;;2.83;0.50;;;;;;;6.90;100.00;101128.34;5074299;28;20114;-84
2021/10/12 03:23:00;;;;;;;2.10;0.68;;;;;;;6.94;100.00;101132.44;5074337;28;20308;-84
2021/10/12 03:25:26;;;;;;;0.70;0.50;;;;;;;6.92;100.00;101121.09;5057338;28;20032;-84
2021/10/12 03:27:52;;;;;;;2.60;0.50;;;;;;;6.96;100.00;101121.72;5074226;28;20674;-83
2021/10/12 03:30:17;;;;;;;7.83;0.90;;;;;;;6.89;100.00;101116.06;5092138;28;20048;-84
2021/10/12 03:32:43;;;;;;;4.07;0.90;;;;;;;6.89;100.00;101104.63;5091891;28;20317;-85
2021/10/12 03:35:09;;;;;;;5.90;0.80;;;;;;;6.88;100.00;101114.41;5091576;28;20369;-85
2021/10/12 03:37:35;;;;;;;5.25;1.90;;;;;;;6.96;100.00;101111.09;5092164;28;20111;-84
2021/10/12 03:40:00;;;;;;;2.77;0.80;;;;;;;6.83;100.00;101100.66;5074419;28;20113;-84
2021/10/12 03:42:26;;;;;;;4.63;0.53;;;;;;;6.92;100.00;101104.34;5074397;28;20376;-83
2021/10/12 03:44:51;;;;;;;4.43;0.83;;;;;;;6.88;100.00;101111.75;5073897;28;20036;-83
2021/10/12 03:47:17;;;;;;;5.73;1.03;;;;;;;6.72;100.00;101100.75;5074400;28;20361;-86
2021/10/12 03:49:42;;;;;;;3.25;1.10;;;;;;;6.74;100.00;101107.59;5074353;28;20464;-85
2021/10/12 03:52:08;;;;;;;3.30;0.90;;;;;;;6.80;100.00;101122.16;5074458;28;20434;-84
2021/10/12 03:54:33;;;;;;;5.37;0.80;;;;;;;6.80;100.00;101116.00;5073423;28;20520;-86
2021/10/12 03:56:59;;;;;;;5.27;0.90;;;;;;;6.69;100.00;101112.41;5073893;28;20289;-84
2021/10/12 03:59:25;;;;;;;6.90;1.33;;;;;;;6.74;100.00;101123.53;5091593;28;20055;-84
2021/10/12 04:01:50;;;;;;;6.68;0.90;;;;;;;6.54;100.00;101105.75;5056995;28;20758;-85
2021/10/12 04:04:16;;;;;;;3.17;0.90;;;;;;;6.67;100.00;101119.69;5073767;28;20032;-85
2021/10/12 04:06:41;;;;;;;2.80;0.90;;;;;;;6.62;100.00;101105.13;5074244;28;20048;-85
2021/10/12 04:09:07;;;;;;;4.57;0.80;;;;;;;6.62;100.00;101116.56;5074096;28;20098;-86
2021/10/12 04:11:32;;;;;;;7.63;1.17;;;;;;;6.52;100.00;101105.88;5091350;28;20035;-85
2021/10/12 04:13:57;;;;;;;9.00;1.53;;;;;;;6.56;100.00;101111.78;5072204;28;20128;-84
2021/10/12 04:16:23;;;;;;;3.27;1.07;;;;;;;6.58;100.00;101109.84;5071880;28;20036;-84
2021/10/12 04:18:48;;;;;;;6.73;1.33;;;;;;;6.52;100.00;101113.00;5090475;28;20026;-84
2021/10/12 04:21:14;;;;;;;11.97;1.93;;;;;;;6.54;100.00;101111.91;5072692;28;20039;-84
2021/10/12 04:23:39;;;;;;;6.93;1.70;;;;;;;6.42;100.00;101089.06;5072351;28;20353;-85
2021/10/12 04:26:09;;;;;;;6.13;0.80;;;;;;;6.51;100.00;101101.56;5072550;28;20373;-85
2021/10/12 04:28:34;;;;;;;6.00;1.00;;;;;;;6.51;100.00;101113.97;5056765;28;20036;-84
2021/10/12 04:31:00;;;;;;;8.02;1.23;;;;;;;6.25;100.00;101063.06;5056767;28;20036;-84
2021/10/12 04:33:25;;;;;;;6.13;1.48;;;;;;;6.51;100.00;101090.94;5090907;28;20036;-86
2021/10/12 04:35:51;;;;;;;4.90;1.53;;;;;;;6.33;100.00;101076.53;5073218;28;20036;-85
2021/10/12 04:38:16;;;;;;;1.37;0.83;;;;;;;6.36;100.00;101075.44;5073706;28;20056;-83
2021/10/12 04:40:43;;;;;;;8.32;0.88;;;;;;;6.44;100.00;101083.59;5073528;28;20044;-85
2021/10/12 04:43:08;;;;;;;8.13;1.23;;;;;;;6.24;100.00;101067.53;5090509;28;20080;-84
2021/10/12 04:45:36;;;;;;;4.90;0.90;;;;;;;6.34;100.00;101079.09;5072348;28;20115;-84
2021/10/12 04:48:03;;;;;;;5.90;1.00;;;;;;;6.29;100.00;101077.75;5090503;28;20791;-85
2021/10/12 04:50:29;;;;;;;;;;;;;;;6.30;100.00;101080.31;5072945;28;20032;-85
2021/10/12 04:52:58;;;;;;;7.82;1.20;;;;;;;6.24;100.00;101080.78;5089974;28;19907;-85
2021/10/12 04:55:24;;;;;;;8.13;1.23;;;;;;;6.21;100.00;101085.53;5055723;28;20036;-84
2021/10/12 04:57:49;;;;;;;3.90;0.80;;;;;;;6.20;100.00;101092.59;5054951;28;20042;-86
2021/10/12 05:00:15;;;;;;;4.93;1.00;;;;;;;6.19;100.00;101093.59;5071586;28;20265;-86
2021/10/12 05:02:40;;;;;;;6.10;1.60;;;;;;;6.18;100.00;101106.97;5071559;28;20043;-86
2021/10/12 05:05:06;;;;;;;8.80;1.83;;;;;;;6.19;100.00;101096.25;5090429;28;20035;-85
2021/10/12 05:07:31;;;;;;;6.15;1.30;;;;;;;6.24;100.00;101109.13;5073100;28;20036;-85
2021/10/12 05:09:57;;;;;;;6.85;1.25;;;;;;;6.22;100.00;101101.28;5090269;28;20130;-86
2021/10/12 05:12:22;;;;;;;4.28;1.13;;;;;;;6.17;100.00;101097.34;5072473;28;20119;-86
2021/10/12 05:14:48;;;;;;;9.97;1.07;;;;;;;6.19;100.00;101098.06;5072083;28;20070;-86
2021/10/12 05:17:23;;;;;;;6.37;1.10;;;;;;;6.24;100.00;101093.22;5055635;28;20028;-85
2021/10/12 05:19:48;;;;;;;3.67;1.47;;;;;;;6.03;100.00;101077.25;5072370;28;20032;-86
2021/10/12 05:22:14;;;;;;;3.15;1.00;;;;;;;6.09;100.00;101092.66;5073228;28;20036;-86
2021/10/12 05:24:39;;;;;;;11.00;1.47;;;;;;;6.01;100.00;101076.53;5090447;28;20028;-86
2021/10/12 05:27:05;;;;;;;9.20;1.63;;;;;;;5.99;100.00;101094.38;5073142;28;20605;-86
2021/10/12 05:29:32;;;;;;;5.43;0.90;;;;;;;6.02;100.00;101096.78;5090900;28;20119;-85
2021/10/12 05:31:57;;;;;;;3.80;1.10;;;;;;;5.98;100.00;101087.41;5056105;28;20099;-86
2021/10/12 05:34:23;;;;;;;5.22;1.13;;;;;;;6.01;100.00;101095.09;5072517;28;20036;-86
2021/10/12 05:36:48;;;;;;;15.25;2.25;;;;;;;6.08;100.00;101098.91;5073160;28;20032;-86
2021/10/12 05:39:14;;;;;;;7.17;1.40;;;;;;;6.07;100.00;101091.94;5072867;28;20020;-86
2021/10/12 05:41:39;;;;;;;7.60;1.20;;;;;;;6.01;100.00;101097.75;5072943;28;20036;-85
2021/10/12 05:44:05;;;;;;;9.83;1.47;;;;;;;5.97;100.00;101096.28;5055943;28;20031;-86
2021/10/12 05:46:30;;;;;;;9.60;1.27;;;;;;;6.03;100.00;101085.19;5072732;28;20036;-84
2021/10/12 05:48:57;;;;;;;6.47;0.97;;;;;;;6.06;100.00;101082.28;5072356;28;20324;-84
2021/10/12 05:51:25;;;;;;;12.50;1.55;;;;;;;5.98;100.00;101066.19;5089848;28;20042;-85
2021/10/12 05:53:52;;;;;;;7.63;1.25;;;;;;;6.04;100.00;101078.91;5089607;28;20433;-84
2021/10/12 05:58:50;;;;;;;4.80;1.00;;;;;;;6.17;100.00;101076.97;5071403;28;20086;-83
2021/10/12 06:01:19;;;;;;;8.45;1.20;;;;;;;6.04;100.00;101060.38;5089201;28;20032;-84
2021/10/12 06:03:44;;;;;;;5.15;1.10;;;;;;;6.07;100.00;101065.44;5055146;28;20620;-87
2021/10/12 06:06:11;;;;;;;7.65;1.23;;;;;;;5.95;100.00;101066.41;5071643;28;20131;-86
2021/10/12 06:08:37;;;;;;;7.10;1.45;;;;;;;6.04;100.00;101066.53;5070910;28;20047;-81
2021/10/12 06:11:05;;;;;;;6.05;1.25;;;;;;;6.03;100.00;101072.78;5070606;28;20119;-83
2021/10/12 06:13:31;;;;;;;2.22;0.88;;;;;;;6.06;100.00;101061.09;5070617;28;20032;-86
2021/10/12 06:15:57;;;;;;;5.55;1.40;;;;;;;6.04;100.00;101071.84;5089385;28;20040;-83
2021/10/12 06:18:23;;;;;;;10.88;2.08;;;;;;;5.99;100.00;101073.16;5089656;28;20028;-85
2021/10/12 06:20:49;;;;;;;7.05;1.00;;;;;;;5.99;100.00;101075.81;5054961;28;20460;-84
2021/10/12 06:23:16;;;;;;;9.45;1.98;;;;;;;6.05;100.00;101070.84;5070348;28;20028;-85
2021/10/12 06:25:41;;;;;;;5.55;1.08;;;;;;;6.06;100.00;101071.69;5071462;28;20032;-85
2021/10/12 06:28:07;;;;;;;7.25;2.45;;;;;;;6.09;100.00;101058.22;5071618;28;20043;-83
2021/10/12 06:30:34;;;;;;;6.15;1.30;;;;;;;6.00;100.00;101048.34;5070585;28;20032;-83
2021/10/12 06:33:00;;;;;;;11.90;1.40;;;;;;;6.20;100.00;101074.06;5070238;28;20036;-84
2021/10/12 06:35:30;;;;;;;9.43;1.88;;;;;;;6.21;100.00;101075.75;5088585;28;20059;-84
2021/10/12 06:37:57;;;;;;;3.70;0.90;;;;;;;6.37;100.00;101078.00;5071306;28;20043;-82
2021/10/12 06:40:23;;;;;;;8.57;1.20;;;;;;;6.66;100.00;101080.84;5073920;28;20024;-83
2021/10/12 06:42:48;;;;;;;8.02;1.20;;;;;;;6.86;100.00;101073.88;5075120;28;20043;-84
2021/10/12 06:45:16;;;;;;;7.73;1.10;;;;;;;6.98;100.00;101074.63;5074559;28;20031;-83
2021/10/12 06:47:46;;;;;;;9.23;1.30;;;;;;;7.22;100.00;101070.84;5074459;28;20869;-81
2021/10/12 06:50:12;;;;;;;9.38;1.20;;;;;;;7.31;98.88;101068.22;5074486;28;20855;-83
2021/10/12 06:52:38;;;;;;;5.57;1.00;;;;;;;7.57;97.86;101079.22;5092470;28;20036;-82
2021/10/12 06:55:04;;;;;;;10.68;2.40;;;;;;;7.63;95.96;101072.50;5091694;28;20100;-83
2021/10/12 06:57:29;;;;;;;6.88;1.00;;;;;;;7.79;94.26;101072.00;5074159;28;20032;-84
2021/10/12 06:59:55;;;;;;;2.67;0.93;;;;;;;7.98;93.47;101071.19;5074017;28;20082;-83
2021/10/12 07:02:20;;;;;;;3.53;0.87;;;;;;;7.90;92.74;101079.88;5073939;28;20028;-82
2021/10/12 07:04:45;;;;;;;3.33;0.93;;;;;;;8.32;93.23;101089.44;5091235;28;20067;-82
2021/10/12 07:07:11;;;;;;;8.87;1.57;;;;;;;8.51;92.06;101084.16;5073379;28;20814;-82
2021/10/12 07:09:36;;;;;;;11.83;1.63;;;;;;;8.64;90.07;101084.72;5073687;28;20301;-82
2021/10/12 07:12:02;;;;;;;4.60;1.10;;;;;;;8.75;87.87;101094.34;5073403;28;20032;-82
2021/10/12 07:14:28;;;;;;;4.75;0.93;;;;;;;8.90;86.53;101077.91;5073128;28;20040;-83
2021/10/12 07:16:54;;;;;;;8.90;1.20;;;;;;;8.84;86.21;101082.00;5073293;28;20020;-81
2021/10/12 07:19:19;;;;;;;5.22;0.85;;;;;;;9.17;85.19;101069.16;5073194;28;20338;-82
2021/10/12 07:21:46;;;;;;;4.25;1.42;;;;;;;9.64;84.58;101087.78;5073256;28;20046;-81
2021/10/12 07:24:11;;;;;;;4.28;0.82;;;;;;;9.82;82.42;101070.00;5090699;28;20032;-81
2021/10/12 07:26:37;;;;;;;5.10;1.00;;;;;;;9.70;81.32;101066.69;5073068;28;20065;-82
2021/10/12 07:29:03;;;;;;;7.33;1.20;;;;;;;10.08;81.49;101072.75;5090930;28;20115;-81
2021/10/12 07:31:28;;;;;;;4.82;1.23;;;;;;;10.48;79.22;101074.16;5056226;28;20027;-82
2021/10/12 07:33:54;;;;;;;6.90;0.97;;;;;;;10.44;78.66;101072.81;5090233;28;20166;-81
2021/10/12 07:36:19;;;;;;;8.37;1.20;;;;;;;10.80;78.58;101077.28;5072843;28;20184;-81
2021/10/12 07:38:45;;;;;;;5.40;1.17;;;;;;;11.13;76.87;101073.81;5072872;28;20299;-82
2021/10/12 07:41:12;;;;;;;3.97;0.65;;;;;;;11.06;75.09;101058.56;5072659;28;20032;-81
2021/10/12 07:43:38;;;;;;;9.65;2.45;;;;;;;10.73;75.27;101064.53;5072429;28;20492;-80
2021/10/12 07:46:03;;;;;;;3.08;1.17;;;;;;;11.27;75.80;101083.06;5072722;28;20120;-81
2021/10/12 07:48:29;;;;;;;12.07;1.10;;;;;;;11.36;74.02;101067.91;5090396;28;20082;-81
2021/10/12 07:50:54;;;;;;;3.42;0.88;;;;;;;11.56;72.94;101066.66;5071355;28;20032;-82
2021/10/12 07:53:20;;;;;;;9.82;1.08;;;;;;;11.34;72.68;101075.25;5071939;28;20032;-82
2021/10/12 07:55:52;;;;;;;4.03;0.93;;;;;;;11.73;72.22;101078.28;5055387;28;20461;-81
2021/10/12 07:58:18;;;;;;;8.00;1.10;;;;;;;12.61;70.81;101071.56;5055433;28;20036;-80
2021/10/12 08:00:44;;;;;;;5.63;1.27;;;;;;;13.18;68.28;101059.91;5071935;28;20032;-82
2021/10/12 08:03:10;;;;;;;4.33;0.63;;;;;;;13.83;66.63;101056.16;5088774;28;20039;-81
2021/10/12 08:05:37;;;;;;;8.13;1.58;;;;;;;12.82;67.61;101049.63;5070286;28;20043;-81
2021/10/12 08:08:03;;;;;;;6.47;1.13;;;;;;;13.30;67.54;101063.97;5088474;28;20048;-81
2021/10/12 08:10:29;;;;;;;;;;;;;;;13.71;66.62;101059.25;5071246;28;20035;-81
2021/10/12 08:13:01;;;;;;;;;;;;;;;12.93;66.56;101043.91;5071000;28;19994;-81
2021/10/12 08:15:26;;;;;;;4.63;0.80;;;;;;;13.73;65.67;101053.72;5070222;28;19915;-82
2021/10/12 08:17:52;;;;;;;6.10;1.63;;;;;;;13.93;64.18;101044.22;5070535;28;20054;-81
2021/10/12 08:20:18;;;;;;;6.43;1.10;;;;;;;13.85;63.98;101054.97;5088936;28;20282;-82
2021/10/12 08:22:44;;;;;;;2.60;0.75;;;;;;;13.77;63.95;101046.16;5072080;28;20035;-81
2021/10/12 08:25:10;;;;;;;4.28;1.38;;;;;;;14.13;64.91;101051.78;5055091;28;20453;-81
2021/10/12 08:27:39;;;;;;;4.03;1.15;;;;;;;14.10;64.01;101046.78;5055319;28;20048;-81
2021/10/12 08:30:07;;;;;;;7.85;1.08;;;;;;;14.06;64.04;101040.94;5055051;28;20346;-80
2021/10/12 08:32:33;;;;;;;5.03;0.80;;;;;;;14.86;63.26;101062.97;5089463;28;20119;-81
2021/10/12 08:34:58;;;;;;;7.63;1.80;;;;;;;15.17;62.30;101052.91;5054766;28;20479;-80
2021/10/12 08:37:23;;;;;;;4.00;1.27;;;;;;;15.06;60.42;101029.16;5089637;28;20520;-80
2021/10/12 08:39:49;;;;;;;3.70;1.13;;;;;;;15.17;59.64;101023.34;5055124;28;20502;-81
2021/10/12 08:42:32;;;;;;;5.43;1.27;;;;;;;14.72;60.76;101019.75;5071476;28;20437;-81
2021/10/12 08:45:00;;;;;;;3.95;1.15;;;;;;;14.75;62.02;101040.91;5054673;28;20181;-80
2021/10/12 08:47:28;;;;;;;3.92;0.90;;;;;;;15.44;60.99;101045.19;5089372;28;20533;-82
2021/10/12 08:49:57;;;;;;;4.05;0.73;;;;;;;15.22;60.84;101051.50;5071541;28;20039;-80
2021/10/12 08:52:22;;;;;;;;;;;;;;;15.69;60.30;101042.19;5089745;28;20103;-81
2021/10/12 08:54:51;;;;;;;;;;;;;;;15.88;59.73;101030.03;5088377;28;20015;-80
2021/10/12 08:57:35;;;;;;;3.90;0.82;;;;;;;16.16;57.82;101005.88;5071243;28;19916;-80
2021/10/12 09:00:06;;;;;;;5.32;0.75;;;;;;;15.85;57.55;100988.16;5089002;28;20414;-80
2021/10/12 09:02:31;;;;;;;3.92;0.90;;;;;;;15.28;58.35;100996.97;5088642;28;20038;-80
2021/10/12 09:04:57;;;;;;;4.68;0.95;;;;;;;15.40;59.67;101014.31;5070807;28;20036;-78
2021/10/12 09:07:24;;;;;;;5.00;1.13;;;;;;;15.71;60.68;101035.63;5054509;28;20036;-79
2021/10/12 09:09:52;;;;;;;7.97;1.17;;;;;;;16.38;58.14;101017.44;5088536;28;20046;-80
2021/10/12 09:12:18;;;;;;;4.97;1.13;;;;;;;16.35;56.03;100982.81;5070747;28;20036;-78
2021/10/12 09:15:11;;;;;;;6.30;1.15;;;;;;;16.35;57.28;100999.81;5053808;28;20514;-79
2021/10/12 09:17:38;;;;;;;5.05;1.00;;;;;;;16.27;58.49;100999.94;5084909;28;20063;-79
2021/10/12 09:20:26;;;;;;;3.88;0.60;;;;;;;15.34;59.03;100989.00;5070862;28;20043;-78
2021/10/12 09:23:08;;;;;;;2.90;0.60;;;;;;;14.63;59.67;100991.28;5074249;28;20120;-80
2021/10/12 09:25:41;;;;;;;4.43;0.98;;;;;;;15.47;60.75;101028.66;5088213;28;20053;-78
2021/10/12 09:28:21;;;;;;;6.22;1.65;;;;;;;15.78;58.36;101012.31;5088311;28;20043;-78
2021/10/12 09:30:48;;;;;;;3.40;0.75;;;;;;;15.35;58.00;100981.75;5070780;28;20071;-77
2021/10/12 09:33:14;;;;;;;4.47;1.47;;;;;;;16.01;56.86;100981.69;5053669;28;20051;-79
2021/10/12 09:35:41;;;;;;;2.90;0.60;;;;;;;15.97;57.26;100986.63;5088504;28;20081;-78
2021/10/12 09:38:10;;;;;;;1.88;0.60;;;;;;;16.41;57.40;100993.66;5070770;28;20282;-78
2021/10/12 09:40:39;;;;;;;3.45;0.70;;;;;;;16.06;58.37;101005.34;5054293;28;20125;-78
2021/10/12 09:43:05;;;;;;;2.55;0.88;;;;;;;15.99;57.84;101008.81;5053730;28;20030;-78
2021/10/12 09:45:39;;;;;;;3.20;0.98;;;;;;;14.64;59.56;100989.47;5070209;28;20028;-79
2021/10/12 09:48:28;;;;;;;6.85;1.00;;;;;;;14.61;62.16;101033.66;5070245;28;20050;-79
2021/10/12 09:51:14;;;;;;;6.43;1.42;;;;;;;15.09;61.55;101046.78;5070372;28;20071;-78
2021/10/12 09:53:45;;;;;;;3.70;0.68;;;;;;;15.32;56.22;100982.13;5069579;28;20044;-78
2021/10/12 09:56:11;;;;;;;4.60;0.50;;;;;;;14.60;58.10;100982.78;5070373;28;20115;-78
2021/10/12 09:58:38;;;;;;;3.78;0.70;;;;;;;14.72;56.40;100971.38;5053826;28;20849;-78
2021/10/12 10:01:08;;;;;;;4.32;0.60;;;;;;;15.87;55.30;100987.97;5088216;28;20028;-77
2021/10/12 10:03:34;;;;;;;3.65;1.13;;;;;;;15.33;57.95;100997.25;5070258;28;20115;-78
2021/10/12 10:06:21;;;;;;;8.48;0.77;;;;;;;14.96;59.01;101005.25;5088160;28;20032;-78
2021/10/12 10:08:51;;;;;;;4.95;1.10;;;;;;;15.74;56.74;100991.34;5070602;28;20074;-77
2021/10/12 10:11:16;;;;;;;4.88;1.20;;;;;;;16.32;56.45;101005.59;5067126;28;20221;-76
2021/10/12 10:13:43;;;;;;;6.25;0.95;;;;;;;16.43;56.39;101007.75;5065241;28;20053;-77
2021/10/12 10:16:09;;;;;;;2.45;0.57;;;;;;;16.78;55.32;100997.03;5074023;28;20673;-77
2021/10/12 10:18:35;;;;;;;;;;;;;;;17.04;54.43;101004.50;5074557;28;20457;-76
2021/10/12 10:21:01;;;;;;;6.80;1.10;;;;;;;16.67;54.47;100986.81;5074126;28;19939;-76
2021/10/12 10:23:56;;;;;;;4.20;1.05;;;;;;;16.18;55.12;100983.09;5073668;28;20642;-77
2021/10/12 10:26:23;;;;;;;7.45;0.98;;;;;;;14.69;57.76;100985.19;5074081;28;20036;-77
2021/10/12 10:28:48;;;;;;;2.95;0.70;;;;;;;15.75;55.87;100984.94;5057114;28;20028;-76
2021/10/12 10:31:14;;;;;;;3.88;0.60;;;;;;;15.66;56.87;101011.09;5074078;28;20154;-76
2021/10/12 10:33:39;;;;;;;1.10;0.70;;;;;;;16.19;56.37;101010.84;5073805;28;20031;-77
2021/10/12 10:36:10;;;;;;;5.60;1.45;;;;;;;15.30;56.34;100989.56;5057595;28;20358;-78
2021/10/12 10:38:45;;;;;;;6.28;1.20;;;;;;;14.65;57.83;100988.44;5091595;28;20036;-77
2021/10/12 10:41:11;;;;;;;2.53;0.75;;;;;;;15.52;56.75;101009.28;5074024;28;20032;-78
2021/10/12 10:43:49;;;;;;;3.13;0.73;;;;;;;15.84;56.23;101021.47;5056819;28;20156;-78
2021/10/12 10:46:33;;;;;;;1.23;0.50;;;;;;;15.94;55.03;100992.38;5073812;28;20036;-77
2021/10/12 10:49:34;;;;;;;1.80;0.55;;;;;;;16.38;53.17;100975.16;5056960;28;20599;-77
2021/10/12 10:52:03;;;;;;;6.10;1.88;;;;;;;14.99;56.59;100995.97;5009243;28;20034;-78
2021/10/12 10:54:38;;;;;;;2.53;0.90;;;;;;;15.01;56.97;101012.75;5075064;28;20122;-78
2021/10/12 10:57:16;;;;;;;5.63;0.75;;;;;;;14.78;56.16;100994.84;5073539;28;20084;-77
2021/10/12 10:59:42;;;;;;;1.92;0.57;;;;;;;14.67;57.87;101008.72;5073691;28;20193;-77
2021/10/12 11:02:30;;;;;;;2.78;1.02;;;;;;;14.96;55.56;100989.13;5073612;28;20110;-77
2021/10/12 11:04:56;;;;;;;3.88;1.27;;;;;;;15.71;53.74;100987.19;5073255;28;20361;-77
2021/10/12 11:07:24;;;;;;;4.00;0.55;;;;;;;15.59;56.08;101011.03;5073682;28;20893;-77
2021/10/12 11:09:50;;;;;;;3.08;0.68;;;;;;;16.14;53.01;100987.19;5073532;28;20127;-77
2021/10/12 11:12:21;;;;;;;3.05;0.65;;;;;;;16.41;54.06;101015.22;5073184;28;20952;-77
2021/10/12 11:14:47;;;;;;;1.08;0.45;;;;;;;15.91;53.74;100983.88;5090799;28;20257;-77
2021/10/12 11:17:13;;;;;;;4.25;0.70;;;;;;;16.01;53.28;100979.84;5073233;28;20501;-77
2021/10/12 11:19:58;;;;;;;2.42;0.50;;;;;;;15.83;53.27;100974.06;5073215;28;20040;-77
2021/10/12 11:22:25;;;;;;;3.27;0.53;;;;;;;16.00;53.28;100988.94;5073266;28;20648;-77
2021/10/12 11:24:51;;;;;;;1.30;0.65;;;;;;;15.69;54.21;100993.75;5072740;28;20107;-77
2021/10/12 11:27:17;;;;;;;2.60;0.40;;;;;;;14.71;55.37;100991.22;5073191;28;20044;-77
2021/10/12 11:29:43;;;;;;;2.23;0.50;;;;;;;14.75;56.27;101011.34;5090936;28;20096;-77